Time;durP1;ratioP1;P1;durP2;ratioP2;P2;SDS_P1;SDS_P2;PMS_P1;PMS_P2;Temp;Humidity;BMP_temperature;BMP_pressure;BME280_temperature;BME280_humidity;BME280_pressure;Samples;Min_cycle;Max_cycle;Signal;HPM_P1;HPM_P2
2022/04/30 00:02:06;;;;;;;21.63;9.30;;;;;;;6.45;92.22;102731.56;5107473;28;20077;-63
2022/04/30 00:04:35;;;;;;;21.83;9.27;;;;;;;6.46;92.59;102728.13;5104863;28;20035;-63
2022/04/30 00:07:01;;;;;;;22.92;9.05;;;;;;;6.46;92.87;102730.75;5107501;28;20026;-63
2022/04/30 00:09:27;;;;;;;22.15;9.15;;;;;;;6.44;93.39;102733.31;5104406;28;20020;-63
2022/04/30 00:11:53;;;;;;;23.42;9.10;;;;;;;6.46;93.54;102722.88;5107555;28;20481;-63
2022/04/30 00:14:18;;;;;;;20.70;8.68;;;;;;;6.39;93.87;102731.25;5104823;28;20363;-63
2022/04/30 00:16:43;;;;;;;21.52;8.90;;;;;;;6.32;95.26;102729.13;5105806;28;20032;-63
2022/04/30 00:19:09;;;;;;;21.70;8.55;;;;;;;6.30;94.99;102726.44;5106286;28;20020;-63
2022/04/30 00:21:34;;;;;;;24.65;8.40;;;;;;;6.18;95.91;102728.44;5104503;28;20034;-63
2022/04/30 00:23:59;;;;;;;20.27;8.25;;;;;;;6.24;96.48;102727.00;5107676;28;20019;-64
2022/04/30 00:26:25;;;;;;;22.35;8.50;;;;;;;6.17;96.50;102726.63;5104086;28;20470;-63
2022/04/30 00:28:52;;;;;;;21.95;8.43;;;;;;;6.22;96.49;102731.31;5106482;28;20032;-64
2022/04/30 00:31:17;;;;;;;20.17;8.02;;;;;;;6.15;96.85;102723.91;5104822;28;20465;-63
2022/04/30 00:33:47;;;;;;;20.60;8.05;;;;;;;6.19;97.08;102725.88;5105818;28;20028;-62
2022/04/30 00:36:14;;;;;;;20.38;7.68;;;;;;;6.20;96.74;102734.66;5105444;28;20429;-63
2022/04/30 00:38:39;;;;;;;21.85;7.88;;;;;;;6.16;97.04;102730.06;5104743;28;20531;-64
2022/04/30 00:41:06;;;;;;;19.98;7.90;;;;;;;6.15;97.32;102723.03;5106529;28;20115;-63
2022/04/30 00:43:42;;;;;;;23.20;8.00;;;;;;;6.13;98.08;102729.91;5105553;28;20042;-64
2022/04/30 00:46:12;;;;;;;20.27;7.53;;;;;;;6.00;99.30;102726.66;5105125;28;20066;-63
2022/04/30 00:48:37;;;;;;;20.52;7.63;;;;;;;6.03;99.51;102718.00;5103819;28;20059;-63
2022/04/30 00:51:04;;;;;;;20.75;7.75;;;;;;;6.03;99.57;102718.94;5106563;28;20051;-63
2022/04/30 00:53:32;;;;;;;20.50;7.63;;;;;;;5.93;100.00;102714.88;5104103;28;20077;-64
2022/04/30 00:56:00;;;;;;;20.95;7.70;;;;;;;5.89;100.00;102715.53;5105830;28;20066;-64
2022/04/30 00:58:29;;;;;;;19.48;7.85;;;;;;;5.86;100.00;102709.22;5104741;28;20024;-64
2022/04/30 01:00:55;;;;;;;20.48;7.70;;;;;;;5.79;100.00;102702.72;5104554;28;20012;-63
2022/04/30 01:03:22;;;;;;;20.27;7.43;;;;;;;5.79;100.00;102699.22;5104213;28;20020;-63
2022/04/30 01:05:49;;;;;;;21.45;7.88;;;;;;;5.75;100.00;102708.63;5104906;28;20038;-63
2022/04/30 01:08:14;;;;;;;21.40;7.75;;;;;;;5.69;100.00;102708.31;5103637;28;20475;-64
2022/04/30 01:10:40;;;;;;;21.77;7.72;;;;;;;5.61;100.00;102701.72;5105469;28;20027;-63
2022/04/30 01:13:06;;;;;;;19.98;7.50;;;;;;;5.64;100.00;102704.56;5104753;28;20027;-63
2022/04/30 01:15:31;;;;;;;20.63;7.95;;;;;;;5.61;100.00;102704.34;5104140;28;20081;-63
2022/04/30 01:17:57;;;;;;;21.15;7.85;;;;;;;5.54;100.00;102705.75;5105688;28;20114;-63
2022/04/30 01:20:22;;;;;;;21.42;8.57;;;;;;;5.52;100.00;102704.75;5102819;28;20043;-63
2022/04/30 01:23:02;;;;;;;20.10;8.05;;;;;;;5.51;100.00;102706.50;5106274;28;20027;-63
2022/04/30 01:25:30;;;;;;;21.42;8.32;;;;;;;5.44;100.00;102704.34;5103408;28;20027;-63
2022/04/30 01:27:58;;;;;;;22.35;7.93;;;;;;;5.44;100.00;102701.72;5105843;27;20116;-63
2022/04/30 01:30:24;;;;;;;21.65;8.45;;;;;;;5.34;100.00;102702.94;5102966;28;20470;-63
2022/04/30 01:38:19;;;;;;;22.45;8.23;;;;;;;5.31;100.00;102694.00;5102321;28;20105;-64
2022/04/30 01:40:44;;;;;;;20.70;8.13;;;;;;;5.23;100.00;102696.22;5105823;28;20024;-64
2022/04/30 01:43:10;;;;;;;20.88;8.02;;;;;;;5.28;100.00;102691.22;5103397;28;20480;-64
2022/04/30 01:45:35;;;;;;;21.48;8.23;;;;;;;5.23;100.00;102694.47;5103762;28;20482;-64
2022/04/30 01:48:03;;;;;;;21.55;8.27;;;;;;;5.23;100.00;102694.47;5104847;28;20023;-63
2022/04/30 01:50:28;;;;;;;21.38;8.25;;;;;;;5.20;100.00;102688.19;5103123;28;20024;-64
2022/04/30 01:52:54;;;;;;;21.42;8.23;;;;;;;5.18;100.00;102689.78;5105506;28;20137;-64
2022/04/30 01:55:19;;;;;;;21.40;8.43;;;;;;;5.18;100.00;102690.69;5102156;28;20067;-65
2022/04/30 01:57:45;;;;;;;22.70;8.38;;;;;;;5.13;100.00;102688.66;5105308;28;20027;-66
2022/04/30 02:00:14;;;;;;;20.65;8.15;;;;;;;5.07;100.00;102694.44;5103834;28;20088;-67
2022/04/30 02:02:42;;;;;;;22.60;8.85;;;;;;;5.01;100.00;102691.44;5106590;28;20042;-65
2022/04/30 02:05:08;;;;;;;22.05;8.90;;;;;;;4.93;100.00;102687.50;5102515;28;20020;-65
2022/04/30 02:07:41;;;;;;;21.80;8.90;;;;;;;4.89;100.00;102684.72;5105195;28;20039;-66
2022/04/30 02:10:08;;;;;;;21.08;9.13;;;;;;;4.88;100.00;102684.63;5104382;28;20024;-65
2022/04/30 02:12:34;;;;;;;23.25;9.18;;;;;;;4.86;100.00;102676.69;5101254;28;20107;-64
2022/04/30 02:15:00;;;;;;;21.75;9.30;;;;;;;4.78;100.00;102667.47;5105321;28;20031;-65
2022/04/30 02:17:28;;;;;;;21.50;9.10;;;;;;;4.76;100.00;102674.38;5101843;28;20024;-65
2022/04/30 02:22:44;;;;;;;23.55;9.32;;;;;;;4.74;100.00;102675.09;5103559;28;20036;-65
2022/04/30 02:25:11;;;;;;;22.95;9.30;;;;;;;4.69;100.00;102677.44;5103834;28;20031;-65
2022/04/30 02:27:41;;;;;;;22.88;9.55;;;;;;;4.63;100.00;102671.81;5102703;28;20476;-66
2022/04/30 02:30:09;;;;;;;22.25;9.75;;;;;;;4.60;100.00;102679.50;5104340;28;20026;-65
2022/04/30 02:32:52;;;;;;;23.15;9.77;;;;;;;4.52;100.00;102673.84;5101772;28;20028;-65
2022/04/30 02:35:26;;;;;;;22.85;10.25;;;;;;;4.57;100.00;102669.75;5102690;28;20115;-64
2022/04/30 02:37:54;;;;;;;23.05;10.00;;;;;;;4.49;100.00;102665.81;5104291;28;20034;-65
2022/04/30 02:40:21;;;;;;;22.58;10.07;;;;;;;4.46;100.00;102671.75;5102658;28;20027;-66
2022/04/30 02:42:50;;;;;;;23.02;10.15;;;;;;;4.47;100.00;102664.78;5103589;28;20100;-65
2022/04/30 02:45:15;;;;;;;22.50;9.93;;;;;;;4.38;100.00;102665.16;5102622;28;20383;-66
2022/04/30 02:47:44;;;;;;;24.20;11.18;;;;;;;4.38;100.00;102659.03;5102898;28;20027;-65
2022/04/30 02:50:12;;;;;;;24.83;10.07;;;;;;;4.29;100.00;102659.38;5103736;28;20051;-65
2022/04/30 02:52:38;;;;;;;24.90;10.43;;;;;;;4.30;100.00;102663.81;5101915;28;20024;-65
2022/04/30 02:55:05;;;;;;;25.42;10.98;;;;;;;4.31;100.00;102649.91;5104783;28;20102;-64
2022/04/30 03:00:31;;;;;;;24.08;10.88;;;;;;;4.33;100.00;102662.28;5105046;28;20046;-63
2022/04/30 03:02:57;;;;;;;24.10;10.77;;;;;;;4.26;100.00;102659.22;5101386;28;20028;-64
2022/04/30 03:05:22;;;;;;;24.38;11.25;;;;;;;4.22;100.00;102660.72;5104099;28;20024;-63
2022/04/30 03:07:48;;;;;;;24.35;10.60;;;;;;;4.25;100.00;102665.25;5102395;28;20213;-63
2022/04/30 03:10:14;;;;;;;24.13;10.75;;;;;;;4.25;100.00;102662.63;5102746;28;20024;-63
2022/04/30 03:12:40;;;;;;;24.50;11.18;;;;;;;4.23;100.00;102662.53;5103653;28;20028;-62
2022/04/30 03:15:06;;;;;;;24.02;10.93;;;;;;;4.22;100.00;102662.47;5101406;28;20031;-62
2022/04/30 03:23:00;;;;;;;24.40;10.80;;;;;;;4.18;100.00;102658.78;5101271;28;20039;-62
2022/04/30 03:25:25;;;;;;;24.50;11.07;;;;;;;4.14;100.00;102660.28;5108178;28;20031;-62
2022/04/30 03:27:50;;;;;;;25.52;11.80;;;;;;;4.07;100.00;102660.72;5105725;28;20031;-62
2022/04/30 03:30:16;;;;;;;24.30;11.55;;;;;;;4.15;100.00;102659.47;5106969;28;20028;-64
2022/04/30 03:32:42;;;;;;;25.10;11.10;;;;;;;4.16;100.00;102652.53;5107126;28;20024;-62
2022/04/30 03:35:09;;;;;;;26.83;12.05;;;;;;;4.18;100.00;102650.91;5105439;28;20028;-65
2022/04/30 03:37:35;;;;;;;24.92;11.60;;;;;;;4.08;100.00;102643.28;5107819;28;20531;-63
2022/04/30 03:40:00;;;;;;;25.50;11.98;;;;;;;4.10;100.00;102645.19;5104798;28;20024;-63
2022/04/30 03:42:26;;;;;;;25.73;11.75;;;;;;;4.06;100.00;102640.59;5107933;28;20431;-62
2022/04/30 03:44:53;;;;;;;24.27;11.70;;;;;;;3.98;100.00;102636.63;5105496;28;20127;-63
2022/04/30 03:47:20;;;;;;;25.90;11.63;;;;;;;3.97;100.00;102642.66;5106158;28;20051;-62
2022/04/30 03:49:45;;;;;;;24.80;11.40;;;;;;;3.89;100.00;102637.00;5106229;28;20435;-63
2022/04/30 03:52:12;;;;;;;26.52;12.13;;;;;;;3.81;100.00;102631.25;5105575;28;20016;-62
2022/04/30 03:54:37;;;;;;;24.45;12.13;;;;;;;3.71;100.00;102641.97;5107233;28;20462;-62
2022/04/30 03:57:03;;;;;;;25.13;12.13;;;;;;;3.67;100.00;102637.41;5104336;28;20035;-63
2022/04/30 03:59:28;;;;;;;24.77;11.73;;;;;;;3.72;100.00;102641.19;5108108;28;20034;-63
2022/04/30 04:01:53;;;;;;;25.27;12.23;;;;;;;3.60;100.00;102637.84;5105083;28;20437;-66
2022/04/30 04:04:19;;;;;;;26.00;12.13;;;;;;;3.61;100.00;102639.63;5106605;28;20471;-65
2022/04/30 04:06:44;;;;;;;24.75;12.52;;;;;;;3.59;100.00;102650.00;5105978;27;20031;-65
2022/04/30 04:09:10;;;;;;;25.85;12.57;;;;;;;3.50;100.00;102646.81;5105738;28;20044;-65
2022/04/30 04:11:35;;;;;;;25.85;12.35;;;;;;;3.44;100.00;102642.09;5107061;28;20509;-65
2022/04/30 04:19:30;;;;;;;26.00;12.93;;;;;;;3.41;100.00;102648.88;5104566;28;20051;-65
2022/04/30 04:21:56;;;;;;;26.27;13.05;;;;;;;3.36;100.00;102643.31;5107625;28;20038;-66
2022/04/30 04:27:05;;;;;;;26.67;13.20;;;;;;;3.49;100.00;102647.63;5104244;28;20035;-64
2022/04/30 04:29:30;;;;;;;28.13;12.57;;;;;;;3.48;100.00;102638.88;5107594;28;20020;-65
2022/04/30 04:31:56;;;;;;;26.83;12.57;;;;;;;3.56;100.00;102649.81;5103900;28;20017;-66
2022/04/30 04:34:21;;;;;;;26.80;13.15;;;;;;;3.60;100.00;102645.69;5106242;28;20085;-68
2022/04/30 04:36:46;;;;;;;26.10;13.00;;;;;;;3.69;100.00;102651.47;5104135;28;20485;-64
2022/04/30 04:39:14;;;;;;;26.13;13.13;;;;;;;3.61;100.00;102655.31;5104981;28;20424;-65
2022/04/30 04:41:41;;;;;;;27.02;13.02;;;;;;;3.63;100.00;102656.31;5106096;28;20035;-65
2022/04/30 04:44:07;;;;;;;26.75;13.05;;;;;;;3.61;100.00;102653.63;5104459;28;20490;-66
2022/04/30 04:46:33;;;;;;;27.73;13.10;;;;;;;3.55;100.00;102662.78;5106674;27;20127;-63
2022/04/30 04:48:59;;;;;;;28.38;13.38;;;;;;;3.48;100.00;102659.78;5103402;28;20482;-63
2022/04/30 04:51:25;;;;;;;26.40;12.75;;;;;;;3.44;100.00;102667.38;5106545;28;20024;-63
2022/04/30 04:53:50;;;;;;;28.38;13.45;;;;;;;3.42;100.00;102664.66;5104529;27;20480;-63
2022/04/30 04:56:16;;;;;;;29.70;13.13;;;;;;;3.40;100.00;102671.47;5104970;28;20525;-63
2022/04/30 04:58:41;;;;;;;26.52;13.05;;;;;;;3.42;100.00;102672.50;5105599;28;20107;-63
2022/04/30 05:01:07;;;;;;;26.88;12.57;;;;;;;3.43;100.00;102671.66;5103722;28;20053;-63
2022/04/30 05:03:32;;;;;;;27.80;13.77;;;;;;;3.44;100.00;102676.09;5106931;28;20047;-63
2022/04/30 05:05:58;;;;;;;25.95;13.75;;;;;;;3.44;100.00;102677.81;5103229;28;20031;-64
2022/04/30 05:08:23;;;;;;;29.27;14.30;;;;;;;3.52;100.00;102684.41;5105729;28;20039;-64
2022/04/30 05:10:49;;;;;;;29.30;13.88;;;;;;;3.56;100.00;102682.91;5104606;27;20386;-64
2022/04/30 05:13:14;;;;;;;27.15;14.13;;;;;;;3.59;100.00;102685.72;5104689;28;20028;-63
2022/04/30 05:15:40;;;;;;;28.33;14.48;;;;;;;3.73;100.00;102682.25;5105611;28;20019;-62
2022/04/30 05:18:07;;;;;;;30.20;14.95;;;;;;;3.76;100.00;102685.03;5104937;28;20080;-64
2022/04/30 05:20:32;;;;;;;28.65;15.02;;;;;;;3.88;100.00;102684.00;5105298;28;20032;-63
2022/04/30 05:22:58;;;;;;;28.23;15.18;;;;;;;3.94;100.00;102687.88;5104124;28;20098;-63
2022/04/30 05:25:23;;;;;;;27.45;14.98;;;;;;;3.99;100.00;102682.91;5104192;28;20042;-62
2022/04/30 05:27:48;;;;;;;28.73;15.00;;;;;;;4.07;100.00;102684.28;5104576;28;20020;-63
2022/04/30 05:30:14;;;;;;;29.98;15.95;;;;;;;4.13;100.00;102683.75;5105803;27;20027;-62
2022/04/30 05:32:39;;;;;;;27.98;14.95;;;;;;;4.16;100.00;102684.81;5101654;28;20028;-63
2022/04/30 05:35:05;;;;;;;29.75;15.43;;;;;;;4.26;100.00;102690.63;5105594;28;20110;-67
2022/04/30 05:37:30;;;;;;;27.83;15.88;;;;;;;4.26;100.00;102686.28;5103301;28;20062;-65
2022/04/30 05:39:55;;;;;;;30.48;16.23;;;;;;;4.38;100.00;102691.34;5104411;28;20070;-65
2022/04/30 05:42:21;;;;;;;29.58;15.88;;;;;;;4.43;100.00;102689.91;5104570;28;20431;-65
2022/04/30 05:44:46;;;;;;;29.60;16.05;;;;;;;4.49;100.00;102690.25;5103000;28;20054;-65
2022/04/30 05:47:11;;;;;;;29.42;16.50;;;;;;;4.54;100.00;102694.06;5105843;28;20019;-65
2022/04/30 05:49:37;;;;;;;31.75;16.77;;;;;;;4.63;100.00;102688.47;5102139;28;20100;-64
2022/04/30 05:52:02;;;;;;;29.52;16.15;;;;;;;4.64;100.00;102691.97;5105455;28;20028;-66
2022/04/30 05:54:28;;;;;;;30.55;16.35;;;;;;;4.72;100.00;102694.22;5103504;27;20020;-65
2022/04/30 05:56:53;;;;;;;28.48;16.15;;;;;;;4.80;100.00;102693.78;5103525;28;20030;-65
2022/04/30 05:59:19;;;;;;;28.70;16.10;;;;;;;4.86;100.00;102692.41;5105073;28;20028;-66
2022/04/30 06:01:44;;;;;;;29.25;16.23;;;;;;;4.89;100.00;102691.66;5102294;28;20035;-66
2022/04/30 06:04:09;;;;;;;29.30;16.17;;;;;;;4.94;100.00;102687.59;5105784;28;20458;-66
2022/04/30 06:06:35;;;;;;;28.00;15.75;;;;;;;5.04;100.00;102694.28;5102698;28;20056;-65
2022/04/30 06:09:00;;;;;;;29.95;16.50;;;;;;;5.07;100.00;102691.81;5104224;28;20024;-65
2022/04/30 06:11:25;;;;;;;30.42;16.10;;;;;;;5.12;100.00;102694.69;5103193;28;20070;-66
2022/04/30 06:13:50;;;;;;;30.05;15.95;;;;;;;5.15;100.00;102695.75;5103253;28;20107;-67
2022/04/30 06:16:16;;;;;;;29.15;15.30;;;;;;;5.26;100.00;102698.06;5104654;28;20110;-65
2022/04/30 06:18:42;;;;;;;28.00;14.63;;;;;;;5.32;100.00;102703.69;5101977;28;20077;-64
2022/04/30 06:21:08;;;;;;;28.60;15.30;;;;;;;5.37;100.00;102696.94;5101939;28;20024;-63
2022/04/30 06:23:33;;;;;;;27.65;14.95;;;;;;;5.45;100.00;102698.28;5104567;28;20532;-63
2022/04/30 06:25:59;;;;;;;30.20;15.82;;;;;;;5.50;100.00;102704.66;5102797;28;20111;-63
2022/04/30 06:28:24;;;;;;;27.35;14.85;;;;;;;5.58;100.00;102698.13;5103013;28;20060;-62
2022/04/30 06:30:49;;;;;;;27.10;14.60;;;;;;;5.65;100.00;102698.47;5104245;28;20023;-63
2022/04/30 06:33:15;;;;;;;27.98;14.75;;;;;;;5.74;100.00;102709.47;5102137;28;20016;-63
2022/04/30 06:35:40;;;;;;;27.08;14.55;;;;;;;5.83;100.00;102709.06;5105176;28;20047;-64
2022/04/30 06:38:06;;;;;;;25.92;14.45;;;;;;;5.90;100.00;102704.22;5101501;28;20130;-63
2022/04/30 06:40:32;;;;;;;27.92;14.05;;;;;;;5.99;100.00;102706.47;5104393;28;20027;-64
2022/04/30 06:42:59;;;;;;;27.58;14.38;;;;;;;6.09;100.00;102700.88;5102842;28;20389;-63
2022/04/30 06:45:24;;;;;;;26.08;14.13;;;;;;;6.16;100.00;102698.56;5102762;28;20048;-63
2022/04/30 06:47:49;;;;;;;28.13;15.70;;;;;;;6.21;100.00;102699.72;5103807;28;20034;-63
2022/04/30 06:50:15;;;;;;;28.23;13.80;;;;;;;6.27;100.00;102698.28;5100895;28;20051;-63
2022/04/30 06:58:08;;;;;;;28.38;14.07;;;;;;;6.50;100.00;102700.31;5103155;28;20043;-63
2022/04/30 07:03:19;;;;;;;25.55;13.52;;;;;;;6.61;100.00;102697.38;5101521;28;20039;-64
2022/04/30 07:05:46;;;;;;;27.00;13.57;;;;;;;6.66;100.00;102701.97;5104424;28;20024;-64
2022/04/30 07:08:11;;;;;;;25.88;13.60;;;;;;;6.69;100.00;102702.13;5101866;28;20169;-63
2022/04/30 07:10:36;;;;;;;25.83;13.75;;;;;;;6.79;100.00;102699.13;5103255;28;20107;-63
2022/04/30 07:13:02;;;;;;;26.23;13.02;;;;;;;6.92;100.00;102698.91;5102946;28;20027;-63
2022/04/30 07:15:27;;;;;;;26.20;12.48;;;;;;;7.04;100.00;102698.59;5101800;28;20031;-63
2022/04/30 07:17:52;;;;;;;25.92;13.27;;;;;;;7.21;100.00;102707.31;5104296;28;20019;-64
2022/04/30 07:20:18;;;;;;;24.35;12.70;;;;;;;7.29;100.00;102698.03;5100945;28;20053;-63
2022/04/30 07:22:43;;;;;;;24.52;12.82;;;;;;;7.43;100.00;102701.31;5102614;28;20071;-64
2022/04/30 07:25:08;;;;;;;24.83;13.00;;;;;;;7.73;100.00;102707.91;5100939;28;20035;-64
2022/04/30 07:27:34;;;;;;;23.45;11.77;;;;;;;7.88;100.00;102707.72;5102702;28;20077;-64
2022/04/30 07:29:59;;;;;;;23.48;11.10;;;;;;;8.07;100.00;102710.34;5103513;28;20016;-64
2022/04/30 07:32:24;;;;;;;25.15;11.50;;;;;;;8.34;100.00;102702.75;5100966;28;20463;-63
2022/04/30 07:34:50;;;;;;;24.10;11.60;;;;;;;8.74;100.00;102698.31;5104249;28;20051;-65
2022/04/30 07:37:15;;;;;;;24.85;11.70;;;;;;;8.92;100.00;102694.63;5101085;28;20040;-66
2022/04/30 07:39:40;;;;;;;22.85;11.20;;;;;;;8.96;100.00;102691.28;5102362;28;20064;-67
2022/04/30 07:42:06;;;;;;;24.55;11.27;;;;;;;8.94;100.00;102696.50;5102458;28;20026;-66
2022/04/30 07:44:32;;;;;;;22.38;10.75;;;;;;;9.17;100.00;102696.50;5102175;28;20035;-65
2022/04/30 07:46:58;;;;;;;23.05;10.43;;;;;;;9.32;100.00;102693.53;5102011;28;20031;-66
2022/04/30 07:49:24;;;;;;;21.48;9.27;;;;;;;9.58;100.00;102686.63;5101120;28;20103;-65
2022/04/30 07:51:58;;;;;;;23.05;10.20;;;;;;;9.76;100.00;102679.41;5102162;28;20034;-65
2022/04/30 07:54:24;;;;;;;22.58;9.73;;;;;;;9.93;100.00;102690.59;5102840;28;20020;-63
2022/04/30 07:56:56;;;;;;;22.73;9.80;;;;;;;10.20;100.00;102694.16;5101850;28;20031;-65
2022/04/30 07:59:24;;;;;;;21.30;9.55;;;;;;;10.46;100.00;102681.88;5103159;28;20028;-64
2022/04/30 08:01:50;;;;;;;22.10;9.63;;;;;;;10.42;100.00;102687.91;5101259;28;20031;-64
2022/04/30 08:04:16;;;;;;;22.70;9.65;;;;;;;10.55;100.00;102691.88;5100003;28;20020;-63
2022/04/30 08:06:41;;;;;;;21.60;9.35;;;;;;;10.64;100.00;102686.88;5102242;28;20467;-64
2022/04/30 08:09:06;;;;;;;21.98;9.40;;;;;;;10.81;100.00;102682.16;5102815;28;20394;-66
2022/04/30 08:11:32;;;;;;;21.42;8.70;;;;;;;11.18;100.00;102682.44;5103122;28;20352;-66
2022/04/30 08:13:57;;;;;;;22.00;8.75;;;;;;;11.57;100.00;102682.72;5107577;28;20435;-67
2022/04/30 08:16:23;;;;;;;21.58;8.23;;;;;;;12.25;100.00;102681.13;5104136;28;20027;-63
2022/04/30 08:18:48;;;;;;;21.73;8.35;;;;;;;13.21;100.00;102690.56;5106626;28;20463;-64
2022/04/30 08:21:14;;;;;;;20.63;8.32;;;;;;;13.82;100.00;102683.88;5105306;28;20032;-65
2022/04/30 08:23:39;;;;;;;20.10;8.00;;;;;;;13.44;100.00;102687.56;5105132;28;20352;-68
2022/04/30 08:26:05;;;;;;;20.63;7.47;;;;;;;13.94;98.64;102685.03;5106794;28;20028;-64
2022/04/30 08:28:31;;;;;;;21.00;7.47;;;;;;;14.07;97.44;102687.94;5103612;28;20020;-64
2022/04/30 08:30:57;;;;;;;20.63;7.72;;;;;;;14.36;89.73;102676.91;5107113;27;20019;-64
2022/04/30 08:33:23;;;;;;;21.42;8.10;;;;;;;14.69;86.45;102671.31;5103819;28;20020;-63
2022/04/30 08:35:48;;;;;;;20.02;7.53;;;;;;;14.32;86.39;102678.63;5106097;28;20016;-63
2022/04/30 08:38:14;;;;;;;20.73;7.57;;;;;;;13.30;92.10;102673.94;5104798;28;20128;-65
2022/04/30 08:40:42;;;;;;;20.65;7.70;;;;;;;12.32;96.36;102675.09;5093339;28;20036;-67
2022/04/30 08:43:12;;;;;;;21.98;8.10;;;;;;;11.58;99.08;102670.41;5105747;28;20016;-63
2022/04/30 08:45:40;;;;;;;23.80;8.30;;;;;;;10.91;100.00;102665.72;5103943;28;20055;-65
2022/04/30 08:48:08;;;;;;;20.60;7.90;;;;;;;10.71;100.00;102661.53;5106011;28;20024;-66
2022/04/30 08:50:33;;;;;;;19.67;8.20;;;;;;;10.89;100.00;102663.88;5103973;28;20016;-66
2022/04/30 08:52:59;;;;;;;20.88;8.32;;;;;;;11.16;100.00;102661.19;5106920;28;20069;-65
2022/04/30 08:55:24;;;;;;;20.63;8.48;;;;;;;11.48;100.00;102670.09;5101159;28;20492;-65
2022/04/30 08:57:49;;;;;;;21.20;8.30;;;;;;;12.59;98.63;102650.16;5104073;28;20024;-62
2022/04/30 09:00:15;;;;;;;22.13;8.38;;;;;;;12.69;96.68;102662.78;5106149;28;20030;-63
2022/04/30 09:02:55;;;;;;;19.52;7.80;;;;;;;12.55;97.59;102660.69;5103653;28;20059;-64
2022/04/30 09:05:20;;;;;;;22.58;8.30;;;;;;;12.51;98.44;102668.53;5104904;28;20378;-63
2022/04/30 09:07:56;;;;;;;20.60;8.25;;;;;;;12.55;98.28;102660.69;5105400;28;20019;-64
2022/04/30 09:10:32;;;;;;;21.02;8.07;;;;;;;12.42;97.65;102661.25;5104495;28;20111;-64
2022/04/30 09:13:08;;;;;;;20.45;8.10;;;;;;;12.39;97.93;102658.50;5103961;28;20445;-64
2022/04/30 09:15:34;;;;;;;20.58;7.88;;;;;;;12.30;97.32;102655.59;5106140;28;20055;-63
2022/04/30 09:18:00;;;;;;;20.77;7.78;;;;;;;12.28;96.67;102662.63;5103374;28;20458;-63
2022/04/30 09:20:26;;;;;;;21.95;8.55;;;;;;;12.34;98.63;102661.03;5104669;28;20028;-63
2022/04/30 09:22:52;;;;;;;20.45;8.48;;;;;;;12.42;96.21;102657.69;5104202;28;20100;-63
2022/04/30 09:25:18;;;;;;;19.95;8.23;;;;;;;12.32;96.31;102657.44;5103457;28;20463;-64
2022/04/30 09:27:51;;;;;;;21.10;8.80;;;;;;;12.38;98.21;102662.91;5105430;28;20023;-63
2022/04/30 09:30:24;;;;;;;20.92;8.52;;;;;;;12.41;97.04;102656.78;5103619;28;20028;-63
2022/04/30 09:33:00;;;;;;;20.90;8.40;;;;;;;12.59;97.07;102653.69;5104574;28;20463;-64
2022/04/30 09:38:11;;;;;;;20.27;8.30;;;;;;;12.22;94.56;102644.81;5102823;28;20086;-64
2022/04/30 09:40:38;;;;;;;20.67;7.95;;;;;;;12.13;95.36;102648.13;5105760;28;20027;-64
2022/04/30 09:43:05;;;;;;;20.40;8.55;;;;;;;12.21;95.88;102649.19;5102848;28;20030;-64
2022/04/30 09:45:32;;;;;;;20.75;7.93;;;;;;;12.19;93.92;102640.31;5104707;28;20054;-65
2022/04/30 09:48:00;;;;;;;20.58;8.50;;;;;;;12.03;94.92;102638.13;5103126;28;20023;-64
2022/04/30 09:56:02;;;;;;;21.85;8.27;;;;;;;13.35;89.43;102635.13;5103651;28;20538;-65
2022/04/30 09:58:28;;;;;;;20.15;8.10;;;;;;;14.00;85.67;102625.75;5104855;28;20031;-63
2022/04/30 10:00:56;;;;;;;20.77;8.00;;;;;;;14.37;84.17;102620.19;5103465;28;20393;-65
2022/04/30 10:03:41;;;;;;;19.10;7.03;;;;;;;14.92;75.39;102630.84;5103429;28;20022;-68
2022/04/30 10:06:08;;;;;;;20.08;7.22;;;;;;;15.11;71.63;102627.56;5102083;28;20027;-64
2022/04/30 10:08:37;;;;;;;18.98;6.82;;;;;;;15.25;69.09;102625.09;5104913;28;20549;-67
2022/04/30 10:11:26;;;;;;;21.42;7.55;;;;;;;15.16;67.40;102625.88;5102040;28;20076;-65
2022/04/30 10:14:10;;;;;;;18.92;6.85;;;;;;;15.22;68.19;102618.81;5103451;28;20375;-66
2022/04/30 10:16:36;;;;;;;19.27;6.80;;;;;;;15.57;62.92;102611.28;5101562;28;20078;-64
2022/04/30 10:19:16;;;;;;;17.50;6.55;;;;;;;15.22;63.53;102609.06;5104570;28;20409;-69
2022/04/30 10:21:42;;;;;;;19.95;6.82;;;;;;;15.44;63.00;102606.69;5101663;28;20028;-65
2022/04/30 10:24:09;;;;;;;19.85;7.40;;;;;;;16.46;51.88;102607.72;5105252;28;20442;-67
2022/04/30 10:26:35;;;;;;;19.65;7.18;;;;;;;16.65;48.16;102601.63;5105405;28;20054;-65
2022/04/30 10:29:14;;;;;;;19.77;7.28;;;;;;;16.27;48.73;102607.56;5101757;28;20028;-64
2022/04/30 10:31:43;;;;;;;18.42;6.40;;;;;;;15.51;47.79;102608.53;5101810;28;20024;-64
2022/04/30 10:34:09;;;;;;;18.77;5.65;;;;;;;14.66;48.31;102603.84;5104021;28;20431;-64
2022/04/30 10:36:37;;;;;;;17.23;5.55;;;;;;;13.85;50.75;102601.53;5101167;28;20020;-63
2022/04/30 10:39:06;;;;;;;19.08;6.00;;;;;;;13.80;52.46;102600.56;5101181;28;20471;-68
2022/04/30 10:41:45;;;;;;;16.48;5.85;;;;;;;13.84;51.74;102592.69;5101352;28;20024;-63
2022/04/30 10:44:13;;;;;;;17.08;5.63;;;;;;;13.31;51.47;102590.75;5103950;28;20413;-68
2022/04/30 10:46:39;;;;;;;16.50;5.40;;;;;;;13.16;51.28;102591.28;5099794;28;20461;-63
2022/04/30 10:49:06;;;;;;;16.52;5.47;;;;;;;13.69;52.44;102590.63;5109056;28;20028;-67
2022/04/30 10:51:42;;;;;;;19.52;5.95;;;;;;;15.57;48.17;102587.28;5111052;28;20051;-69
2022/04/30 10:54:18;;;;;;;17.63;6.43;;;;;;;16.09;46.14;102578.97;5110863;28;20022;-67
2022/04/30 10:56:45;;;;;;;16.50;5.70;;;;;;;18.88;38.13;102578.97;5108997;28;20036;-69
2022/04/30 10:59:21;;;;;;;18.05;6.18;;;;;;;20.63;34.41;102578.72;5109910;28;20413;-69
2022/04/30 11:01:49;;;;;;;20.15;6.55;;;;;;;20.15;33.48;102571.16;5108689;28;20089;-69
2022/04/30 11:04:19;;;;;;;19.30;6.40;;;;;;;19.54;34.23;102572.41;5105785;28;20031;-64
2022/04/30 11:06:47;;;;;;;18.00;6.07;;;;;;;18.89;34.36;102563.81;5109290;28;20081;-64
2022/04/30 11:09:13;;;;;;;19.00;6.00;;;;;;;18.58;34.83;102570.09;5108063;28;20024;-70
2022/04/30 11:11:38;;;;;;;16.20;5.72;;;;;;;20.76;32.26;102563.41;5103329;28;20027;-69
2022/04/30 11:14:09;;;;;;;16.45;5.60;;;;;;;22.96;30.38;102563.59;5102460;28;20028;-69
2022/04/30 11:16:45;;;;;;;18.80;5.97;;;;;;;24.74;26.15;102556.69;5105987;28;20486;-67
2022/04/30 11:19:13;;;;;;;17.52;5.60;;;;;;;26.32;24.99;102556.25;5101790;28;20424;-66
2022/04/30 11:21:44;;;;;;;15.48;4.95;;;;;;;26.88;23.57;102546.13;5105857;28;20016;-67
2022/04/30 11:24:10;;;;;;;14.25;5.28;;;;;;;26.43;22.98;102545.00;5105488;28;20032;-69
2022/04/30 11:26:41;;;;;;;14.93;4.82;;;;;;;26.09;24.20;102538.97;5112052;28;20032;-69
2022/04/30 11:29:11;;;;;;;14.25;4.88;;;;;;;26.79;23.86;102539.22;5110783;28;20020;-68
2022/04/30 11:31:37;;;;;;;16.88;5.30;;;;;;;28.14;20.93;102540.22;5109353;28;20027;-69
2022/04/30 11:34:15;;;;;;;15.45;4.85;;;;;;;27.41;22.01;102536.88;5111074;28;20031;-69
2022/04/30 11:36:52;;;;;;;15.18;5.10;;;;;;;27.33;21.13;102534.41;5108068;28;20416;-69
2022/04/30 11:39:19;;;;;;;15.32;5.18;;;;;;;27.98;20.08;102532.72;5112175;28;20081;-65
2022/04/30 11:41:48;;;;;;;16.55;4.93;;;;;;;28.65;19.55;102530.69;5111879;28;20027;-64
2022/04/30 11:44:15;;;;;;;16.67;5.47;;;;;;;28.55;18.48;102521.16;5108362;28;20062;-64
2022/04/30 11:46:41;;;;;;;16.20;5.18;;;;;;;29.06;18.96;102513.38;5115440;28;20048;-65
2022/04/30 11:49:09;;;;;;;15.80;5.40;;;;;;;28.91;19.06;102522.28;5114517;28;20047;-65
2022/04/30 11:51:35;;;;;;;18.55;5.95;;;;;;;26.78;22.41;102524.78;5113513;28;20548;-68
2022/04/30 11:54:08;;;;;;;18.52;6.40;;;;;;;23.60;26.30;102514.56;5106049;28;20063;-66
2022/04/30 11:56:34;;;;;;;19.40;6.70;;;;;;;20.81;29.75;102523.03;5106061;28;20047;-65